Time;durP1;ratioP1;P1;durP2;ratioP2;P2;SDS_P1;SDS_P2;PMS_P1;PMS_P2;Temp;Humidity;BMP_temperature;BMP_pressure;BME280_temperature;BME280_humidity;BME280_pressure;Samples;Min_cycle;Max_cycle;Signal;HPM_P1;HPM_P2
2023/05/25 00:01:33;;;;;;;19.45;7.63;;;;;;;;;;5011385;28;20018;-66
2023/05/25 00:03:59;;;;;;;17.13;7.57;;;;;;;;;;5010294;28;20077;-65
2023/05/25 00:06:26;;;;;;;23.38;7.68;;;;;;;;;;5010205;28;20037;-66
2023/05/25 00:08:54;;;;;;;15.45;7.45;;;;;;;;;;5011577;28;20030;-66
2023/05/25 00:11:22;;;;;;;19.35;7.68;;;;;;;;;;5011418;28;20028;-66
2023/05/25 00:13:48;;;;;;;21.63;8.30;;;;;;;;;;5011365;28;20026;-65
2023/05/25 00:16:14;;;;;;;20.45;7.70;;;;;;;;;;5011327;28;20022;-65
2023/05/25 00:18:40;;;;;;;16.85;8.23;;;;;;;;;;5011346;28;20071;-66
2023/05/25 00:21:06;;;;;;;21.75;7.85;;;;;;;;;;5011157;28;20031;-66
2023/05/25 00:23:32;;;;;;;19.45;8.50;;;;;;;;;;5008627;28;20467;-66
2023/05/25 00:25:59;;;;;;;15.60;7.50;;;;;;;;;;5009785;28;20046;-66
2023/05/25 00:28:25;;;;;;;16.42;7.63;;;;;;;;;;5011186;28;20045;-66
2023/05/25 00:30:51;;;;;;;19.42;8.27;;;;;;;;;;5011039;28;20033;-65
2023/05/25 00:33:17;;;;;;;20.80;7.93;;;;;;;;;;5011081;28;20018;-66
2023/05/25 00:35:43;;;;;;;22.15;8.23;;;;;;;;;;5011162;28;20021;-66
2023/05/25 00:38:16;;;;;;;17.85;8.13;;;;;;;;;;5011048;28;20113;-66
2023/05/25 00:40:42;;;;;;;21.58;7.85;;;;;;;;;;5010130;28;20490;-65
2023/05/25 00:43:09;;;;;;;18.13;7.05;;;;;;;;;;5011134;28;20030;-65
2023/05/25 00:45:35;;;;;;;18.27;7.72;;;;;;;;;;5011031;28;20036;-65
2023/05/25 00:48:03;;;;;;;19.13;8.60;;;;;;;;;;5010970;28;20022;-66
2023/05/25 00:50:39;;;;;;;16.17;7.95;;;;;;;;;;5011228;28;20064;-65
2023/05/25 00:53:06;;;;;;;18.00;8.18;;;;;;;;;;5010841;28;20633;-65
2023/05/25 00:55:44;;;;;;;17.20;8.38;;;;;;;;;;5010915;28;20045;-65
2023/05/25 00:58:11;;;;;;;18.90;8.55;;;;;;;;;;5010528;28;20026;-65
2023/05/25 01:00:38;;;;;;;21.40;8.25;;;;;;;;;;5014276;28;20519;-65
2023/05/25 01:03:10;;;;;;;19.83;8.88;;;;;;;;;;5014242;28;20076;-65
2023/05/25 01:05:37;;;;;;;20.40;8.70;;;;;;;;;;5014521;28;20100;-65
2023/05/25 01:08:04;;;;;;;19.50;8.35;;;;;;;;;;5014512;28;20053;-64
2023/05/25 01:10:32;;;;;;;18.20;8.50;;;;;;;;;;5013123;28;20437;-66
2023/05/25 01:12:59;;;;;;;21.77;8.88;;;;;;;;;;5014353;28;20071;-65
2023/05/25 01:15:26;;;;;;;22.05;9.20;;;;;;;;;;5013261;28;20044;-65
2023/05/25 01:17:52;;;;;;;22.90;9.25;;;;;;;;;;5013453;28;20152;-65
2023/05/25 01:20:19;;;;;;;20.25;8.35;;;;;;;;;;5014323;28;20164;-64
2023/05/25 01:22:53;;;;;;;22.67;8.95;;;;;;;;;;5014114;28;20110;-66
2023/05/25 01:25:22;;;;;;;30.02;8.80;;;;;;;;;;5013569;28;20517;-66
2023/05/25 01:27:59;;;;;;;19.83;8.68;;;;;;;;;;5013768;28;20493;-65
2023/05/25 01:30:26;;;;;;;21.02;8.60;;;;;;;;;;5014062;28;20044;-65
2023/05/25 01:32:54;;;;;;;22.35;8.55;;;;;;;;;;5014032;28;20083;-67
2023/05/25 01:35:20;;;;;;;18.65;8.63;;;;;;;;;;5011577;28;20124;-65
2023/05/25 01:37:47;;;;;;;17.83;8.13;;;;;;;;;;5012340;28;20363;-65
2023/05/25 01:40:14;;;;;;;22.85;8.70;;;;;;;;;;5014168;28;20026;-64
2023/05/25 01:42:40;;;;;;;17.88;8.13;;;;;;;;;;5013634;28;20026;-65
2023/05/25 01:45:07;;;;;;;16.38;7.65;;;;;;;;;;5013565;28;20048;-65
2023/05/25 01:47:52;;;;;;;15.85;7.63;;;;;;;;;;5013736;28;20026;-66
2023/05/25 01:50:18;;;;;;;21.90;6.97;;;;;;;;;;5012561;28;20036;-66
2023/05/25 01:52:48;;;;;;;18.23;8.35;;;;;;;;;;5013593;28;20459;-64
2023/05/25 01:55:18;;;;;;;24.00;9.63;;;;;;;;;;5013712;28;20037;-65
2023/05/25 01:57:46;;;;;;;21.08;8.85;;;;;;;;;;5013501;28;20022;-65
2023/05/25 02:00:13;;;;;;;22.73;8.48;;;;;;;;;;5013368;28;20033;-65
2023/05/25 02:02:41;;;;;;;26.52;9.45;;;;;;;;;;5012215;28;20041;-64
2023/05/25 02:05:07;;;;;;;21.42;8.57;;;;;;;;;;5010805;28;20038;-67
2023/05/25 02:07:33;;;;;;;23.20;8.48;;;;;;;;;;5013292;28;20470;-65
2023/05/25 02:09:59;;;;;;;20.92;9.70;;;;;;;;;;5012300;28;20065;-65
2023/05/25 02:12:25;;;;;;;20.23;9.02;;;;;;;;;;5013049;28;20037;-65
2023/05/25 02:14:51;;;;;;;20.48;9.20;;;;;;;;;;5013031;28;20415;-64
2023/05/25 02:17:18;;;;;;;20.63;9.18;;;;;;;;;;5013020;28;20065;-65
2023/05/25 02:19:44;;;;;;;19.70;7.80;;;;;;;;;;5012962;28;20022;-65
2023/05/25 02:22:10;;;;;;;20.63;7.85;;;;;;;;;;5011908;28;20029;-65
2023/05/25 02:24:36;;;;;;;19.77;8.35;;;;;;;;;;5012550;28;20034;-65
2023/05/25 02:27:03;;;;;;;21.45;8.27;;;;;;;;;;5013047;28;20032;-65
2023/05/25 02:29:29;;;;;;;22.90;8.23;;;;;;;;;;5012854;28;20034;-64
2023/05/25 02:31:55;;;;;;;18.95;7.85;;;;;;;;;;5012595;28;20022;-64
2023/05/25 02:34:21;;;;;;;22.40;8.80;;;;;;;;;;5012925;28;20030;-64
2023/05/25 02:36:47;;;;;;;21.63;9.02;;;;;;;;;;5012731;28;20072;-65
2023/05/25 02:39:13;;;;;;;23.63;8.65;;;;;;;;;;5011687;28;20026;-65
2023/05/25 02:41:39;;;;;;;19.60;8.23;;;;;;;;;;5012535;28;20026;-65
2023/05/25 02:44:05;;;;;;;18.10;8.60;;;;;;;;;;5012330;28;20040;-66
2023/05/25 02:46:32;;;;;;;30.48;8.60;;;;;;;;;;5012421;28;20052;-65
2023/05/25 02:48:58;;;;;;;18.60;8.40;;;;;;;;;;5012431;28;20072;-64
2023/05/25 02:51:25;;;;;;;21.77;7.20;;;;;;;;;;5012206;28;20541;-65
2023/05/25 02:53:51;;;;;;;21.48;6.95;;;;;;;;;;5012371;28;20022;-65
2023/05/25 02:56:17;;;;;;;16.13;6.53;;;;;;;;;;5011458;28;20533;-64
2023/05/25 02:58:43;;;;;;;17.77;6.40;;;;;;;;;;5012343;28;20470;-65
2023/05/25 03:01:09;;;;;;;26.48;7.05;;;;;;;;;;5011966;28;20026;-65
2023/05/25 03:03:36;;;;;;;17.27;6.70;;;;;;;;;;5012192;28;20053;-64
2023/05/25 03:06:03;;;;;;;16.35;6.15;;;;;;;;;;5012443;28;20045;-66
2023/05/25 03:08:29;;;;;;;19.27;6.28;;;;;;;;;;5012345;28;20065;-65
2023/05/25 03:10:55;;;;;;;18.20;6.97;;;;;;;;;;5011253;28;20029;-65
2023/05/25 03:13:21;;;;;;;12.52;6.20;;;;;;;;;;5012103;28;20018;-65
2023/05/25 03:15:47;;;;;;;17.05;6.38;;;;;;;;;;5011935;28;20026;-64
2023/05/25 03:18:13;;;;;;;16.58;7.00;;;;;;;;;;5012085;28;20624;-64
2023/05/25 03:20:40;;;;;;;17.10;6.80;;;;;;;;;;5011885;28;20382;-64
2023/05/25 03:23:06;;;;;;;20.63;7.20;;;;;;;;;;5012256;28;20029;-64
2023/05/25 03:25:32;;;;;;;17.45;6.95;;;;;;;;;;5011333;28;20050;-64
2023/05/25 03:27:58;;;;;;;17.38;7.38;;;;;;;;;;5010730;28;20072;-65
2023/05/25 03:30:24;;;;;;;19.55;8.07;;;;;;;;;;5011620;28;20580;-65
2023/05/25 03:32:51;;;;;;;18.42;8.77;;;;;;;;;;5011755;28;20022;-65
2023/05/25 03:35:17;;;;;;;17.90;8.65;;;;;;;;;;5011650;28;20479;-65
2023/05/25 03:37:43;;;;;;;21.95;7.72;;;;;;;;;;5011713;28;20575;-65
2023/05/25 03:40:10;;;;;;;17.80;9.13;;;;;;;;;;5011676;28;20029;-64
2023/05/25 03:42:37;;;;;;;21.10;8.73;;;;;;;;;;5011650;28;20030;-65
2023/05/25 03:45:03;;;;;;;22.83;7.80;;;;;;;;;;5010431;28;20041;-65
2023/05/25 03:47:29;;;;;;;21.25;9.60;;;;;;;;;;5011684;28;20030;-65
2023/05/25 03:49:55;;;;;;;19.67;8.68;;;;;;;;;;5011244;28;20039;-65
2023/05/25 03:52:21;;;;;;;17.75;7.43;;;;;;;;;;5011669;28;20022;-65
2023/05/25 03:54:47;;;;;;;23.98;8.32;;;;;;;;;;5011590;28;20026;-65
2023/05/25 03:57:13;;;;;;;27.67;8.77;;;;;;;;;;5011509;28;20022;-65
2023/05/25 03:59:39;;;;;;;28.42;8.70;;;;;;;;;;5011227;28;20498;-65
2023/05/25 04:02:05;;;;;;;20.10;8.90;;;;;;;;;;5010296;28;20030;-65
2023/05/25 04:04:31;;;;;;;27.92;9.88;;;;;;;;;;5011299;28;20042;-64
2023/05/25 04:06:57;;;;;;;29.90;10.52;;;;;;;;;;5011319;28;20398;-65
2023/05/25 04:09:23;;;;;;;31.17;10.43;;;;;;;;;;5011268;28;20037;-65
2023/05/25 04:11:49;;;;;;;28.90;10.93;;;;;;;;;;5011149;28;20030;-65
2023/05/25 04:14:15;;;;;;;24.48;10.55;;;;;;;;;;5011086;28;20080;-65
2023/05/25 04:16:41;;;;;;;26.40;9.98;;;;;;;;;;5010780;28;20121;-64
2023/05/25 04:19:07;;;;;;;27.40;10.68;;;;;;;;;;5011546;28;20018;-64
2023/05/25 04:21:33;;;;;;;24.13;9.70;;;;;;;;;;5011364;28;20022;-64
2023/05/25 04:24:00;;;;;;;24.45;9.07;;;;;;;;;;5011028;28;20387;-64
2023/05/25 04:26:26;;;;;;;17.60;9.13;;;;;;;;;;5010917;28;20046;-66
2023/05/25 04:28:55;;;;;;;23.70;9.10;;;;;;;;;;5009932;28;20479;-65
2023/05/25 04:31:21;;;;;;;24.35;10.10;;;;;;;;;;5010973;28;20030;-64
2023/05/25 04:33:48;;;;;;;27.35;10.05;;;;;;;;;;5011818;28;20064;-65
2023/05/25 04:36:14;;;;;;;22.98;10.55;;;;;;;;;;5015145;28;20025;-64
2023/05/25 04:38:41;;;;;;;29.60;12.70;;;;;;;;;;5014821;28;20025;-65
2023/05/25 04:41:07;;;;;;;23.45;11.52;;;;;;;;;;5012357;28;20022;-65
2023/05/25 04:43:33;;;;;;;31.95;11.45;;;;;;;;;;5014503;28;20120;-64
2023/05/25 04:46:00;;;;;;;31.08;11.65;;;;;;;;;;5013364;28;20065;-64
2023/05/25 04:48:31;;;;;;;29.80;12.95;;;;;;;;;;5013554;28;20034;-65
2023/05/25 04:51:01;;;;;;;30.70;12.37;;;;;;;;;;5014829;28;20091;-65
2023/05/25 04:53:28;;;;;;;34.20;13.77;;;;;;;;;;5014740;28;20034;-65
2023/05/25 04:55:54;;;;;;;25.50;12.35;;;;;;;;;;5014705;28;20024;-66
2023/05/25 04:58:20;;;;;;;32.88;13.15;;;;;;;;;;5011835;28;20034;-64
2023/05/25 05:00:46;;;;;;;27.40;12.52;;;;;;;;;;5014268;28;20037;-67
2023/05/25 05:03:12;;;;;;;30.25;12.85;;;;;;;;;;5014382;28;20041;-65
2023/05/25 05:05:38;;;;;;;35.25;12.68;;;;;;;;;;5014553;28;20025;-65
2023/05/25 05:08:04;;;;;;;26.38;11.70;;;;;;;;;;5014452;28;20030;-64
2023/05/25 05:10:31;;;;;;;27.35;12.40;;;;;;;;;;5014491;28;20061;-65
2023/05/25 05:12:57;;;;;;;32.78;12.20;;;;;;;;;;4996269;28;20034;-64
2023/05/25 05:15:23;;;;;;;34.55;12.93;;;;;;;;;;5009731;28;20056;-65
2023/05/25 05:17:49;;;;;;;25.67;12.57;;;;;;;;;;5010914;28;20026;-65
2023/05/25 05:20:15;;;;;;;27.83;11.70;;;;;;;;;;5010786;28;20084;-65
2023/05/25 05:22:42;;;;;;;28.67;12.18;;;;;;;;;;5013164;28;20042;-66
2023/05/25 05:25:08;;;;;;;29.10;11.77;;;;;;;;;;5010535;28;20050;-66
2023/05/25 05:27:34;;;;;;;29.50;11.40;;;;;;;;;;5014112;28;20030;-66
2023/05/25 05:30:01;;;;;;;24.92;11.85;;;;;;;;;;5012810;28;20029;-66
2023/05/25 05:32:27;;;;;;;28.63;11.85;;;;;;;;;;5011332;28;20052;-66
2023/05/25 05:34:53;;;;;;;36.35;11.98;;;;;;;;;;5013253;28;20491;-67
2023/05/25 05:37:19;;;;;;;27.15;12.77;;;;;;;;;;5013213;28;20588;-66
2023/05/25 05:39:45;;;;;;;25.98;11.20;;;;;;;;;;5013421;28;20026;-65
2023/05/25 05:42:11;;;;;;;25.98;11.52;;;;;;;;;;5013683;28;20103;-65
2023/05/25 05:44:37;;;;;;;25.70;10.80;;;;;;;;;;5010690;28;20042;-67
2023/05/25 05:47:03;;;;;;;28.90;11.70;;;;;;;;;;5011939;28;20033;-66
2023/05/25 05:49:30;;;;;;;25.05;10.23;;;;;;;;;;5012928;28;20040;-65
2023/05/25 05:51:56;;;;;;;21.73;10.63;;;;;;;;;;5013363;28;20036;-67
2023/05/25 05:54:22;;;;;;;24.33;9.48;;;;;;;;;;5013454;28;20526;-66
2023/05/25 05:56:51;;;;;;;21.67;9.45;;;;;;;;;;5013547;28;20022;-66
2023/05/25 05:59:17;;;;;;;26.10;10.00;;;;;;;;;;5011037;28;20046;-68
2023/05/25 06:01:44;;;;;;;21.88;10.43;;;;;;;;;;5012224;28;20056;-65
2023/05/25 06:04:10;;;;;;;25.00;9.65;;;;;;;;;;5012475;28;20069;-67
2023/05/25 06:06:37;;;;;;;22.17;10.38;;;;;;;;;;5011135;28;20427;-66
2023/05/25 06:09:05;;;;;;;22.33;9.55;;;;;;;;;;5013078;28;20537;-67
2023/05/25 06:11:32;;;;;;;23.98;9.88;;;;;;;;;;5013285;28;20018;-67
2023/05/25 06:13:58;;;;;;;20.45;10.02;;;;;;;;;;5012922;28;20026;-67
2023/05/25 06:16:24;;;;;;;22.20;9.05;;;;;;;;;;5013122;28;20712;-66
2023/05/25 06:18:50;;;;;;;20.45;8.13;;;;;;;;;;5012173;28;20025;-67
2023/05/25 06:21:16;;;;;;;18.35;8.60;;;;;;;;;;5011128;28;20029;-66
2023/05/25 06:23:42;;;;;;;20.92;8.73;;;;;;;;;;5010834;28;20471;-68
2023/05/25 06:26:08;;;;;;;19.05;8.05;;;;;;;;;;5012758;28;20057;-67
2023/05/25 06:28:35;;;;;;;21.80;10.10;;;;;;;;;;5012855;28;20472;-66
2023/05/25 06:31:01;;;;;;;17.80;7.65;;;;;;;;;;5010975;28;20034;-66
2023/05/25 06:33:27;;;;;;;13.50;6.95;;;;;;;;;;5011415;28;20034;-65
2023/05/25 06:35:55;;;;;;;16.25;6.82;;;;;;;;;;5012761;28;20045;-66
2023/05/25 06:38:22;;;;;;;15.88;7.45;;;;;;;;;;5011956;28;20093;-67
2023/05/25 06:40:48;;;;;;;21.80;7.10;;;;;;;;;;4996056;28;20069;-65
2023/05/25 06:43:14;;;;;;;12.98;5.38;;;;;;;;;;5009224;28;20034;-67
2023/05/25 06:45:40;;;;;;;11.68;5.40;;;;;;;;;;5012417;28;20069;-66
2023/05/25 06:48:06;;;;;;;14.55;5.63;;;;;;;;;;5012385;28;20533;-64
2023/05/25 06:50:32;;;;;;;16.73;5.85;;;;;;;;;;5011045;28;20061;-67
2023/05/25 06:52:58;;;;;;;10.68;4.88;;;;;;;;;;5010205;28;20026;-66
2023/05/25 06:55:25;;;;;;;11.80;4.45;;;;;;;;;;5012118;28;20034;-65
2023/05/25 06:57:51;;;;;;;13.32;4.00;;;;;;;;;;5007281;28;20030;-67
2023/05/25 07:00:17;;;;;;;14.00;3.63;;;;;;;;;;5005966;28;20097;-66
2023/05/25 07:02:43;;;;;;;14.18;3.83;;;;;;;;;;5032063;28;20298;-66
2023/05/25 07:05:10;;;;;;;7.63;3.33;;;;;;;;;;5018652;28;20088;-66
2023/05/25 07:07:36;;;;;;;13.27;3.75;;;;;;;;;;5012432;28;20060;-66
2023/05/25 07:10:06;;;;;;;10.32;3.53;;;;;;;;;;5012131;28;20470;-65
2023/05/25 07:12:32;;;;;;;13.45;4.03;;;;;;;;;;5010542;28;20052;-66
2023/05/25 07:14:58;;;;;;;12.43;3.47;;;;;;;;;;5010637;28;20603;-64
2023/05/25 07:17:24;;;;;;;15.55;3.92;;;;;;;;;;5010857;28;20079;-65
2023/05/25 07:19:50;;;;;;;12.02;3.60;;;;;;;;;;5009489;28;20057;-65
2023/05/25 07:22:17;;;;;;;15.23;4.47;;;;;;;;;;5011816;28;20021;-65
2023/05/25 07:24:44;;;;;;;11.30;3.50;;;;;;;;;;5011613;28;20041;-65
2023/05/25 07:27:11;;;;;;;12.63;3.17;;;;;;;;;;5011702;28;20612;-65
2023/05/25 07:29:38;;;;;;;13.80;3.67;;;;;;;;;;5011644;28;20511;-66
2023/05/25 07:32:04;;;;;;;11.77;3.75;;;;;;;;;;5010363;28;20111;-66
2023/05/25 07:34:30;;;;;;;10.23;3.65;;;;;;;;;;5011775;28;20022;-66
2023/05/25 07:36:56;;;;;;;11.75;3.10;;;;;;;;;;5010659;28;20447;-65
2023/05/25 07:39:23;;;;;;;13.57;3.83;;;;;;;;;;5011516;28;20026;-65
2023/05/25 07:41:49;;;;;;;7.55;3.13;;;;;;;;;;5010647;28;20022;-66
2023/05/25 07:44:15;;;;;;;10.02;3.63;;;;;;;;;;5011673;28;20033;-66
2023/05/25 07:46:42;;;;;;;9.27;3.30;;;;;;;;;;5011516;28;20028;-65
2023/05/25 07:49:14;;;;;;;10.82;3.33;;;;;;;;;;5011484;28;20022;-66
2023/05/25 07:51:40;;;;;;;11.90;3.42;;;;;;;;;;5010157;28;20021;-65
2023/05/25 07:54:06;;;;;;;8.75;3.55;;;;;;;;;;5011706;28;20549;-66
2023/05/25 07:56:32;;;;;;;12.98;3.85;;;;;;;;;;5010305;28;20462;-65
2023/05/25 07:58:59;;;;;;;11.43;4.00;;;;;;;;;;5011338;28;20036;-65
2023/05/25 08:01:26;;;;;;;14.80;3.53;;;;;;;;;;5011521;28;20026;-65
2023/05/25 08:03:52;;;;;;;12.75;3.65;;;;;;;;;;5011615;28;20052;-66
2023/05/25 08:06:18;;;;;;;16.45;4.35;;;;;;;;;;5009246;28;20495;-66
2023/05/25 08:08:44;;;;;;;13.23;3.60;;;;;;;;;;5013298;28;20053;-65
2023/05/25 08:11:10;;;;;;;11.43;3.20;;;;;;;;;;5015470;28;20058;-65
2023/05/25 08:13:37;;;;;;;13.38;4.22;;;;;;;;;;5015403;28;20041;-66
2023/05/25 08:16:03;;;;;;;10.75;3.42;;;;;;;;;;5014079;28;20068;-65
2023/05/25 08:18:30;;;;;;;12.60;3.80;;;;;;;;;;5015252;28;20022;-66
2023/05/25 08:20:56;;;;;;;13.25;4.10;;;;;;;;;;5015113;28;20025;-65
2023/05/25 08:23:22;;;;;;;11.40;3.35;;;;;;;;;;5013974;28;20045;-65
2023/05/25 08:25:48;;;;;;;10.30;3.55;;;;;;;;;;5014959;28;20499;-66
2023/05/25 08:28:14;;;;;;;9.80;3.08;;;;;;;;;;5014905;28;20029;-65
2023/05/25 08:30:42;;;;;;;12.48;3.63;;;;;;;;;;5015114;28;20026;-65
2023/05/25 08:33:08;;;;;;;9.75;3.10;;;;;;;;;;5014977;28;20014;-64
2023/05/25 08:35:38;;;;;;;11.50;3.20;;;;;;;;;;5015139;28;20101;-66
2023/05/25 08:38:04;;;;;;;11.38;3.17;;;;;;;;;;5013895;28;20407;-66
2023/05/25 08:40:30;;;;;;;13.02;3.60;;;;;;;;;;5014869;28;20490;-65
2023/05/25 08:42:56;;;;;;;10.30;2.92;;;;;;;;;;5014574;28;20034;-66
2023/05/25 08:45:23;;;;;;;9.95;3.28;;;;;;;;;;5013502;28;20077;-66
2023/05/25 08:47:53;;;;;;;11.88;3.53;;;;;;;;;;5014644;28;20025;-65
2023/05/25 08:50:19;;;;;;;8.30;3.20;;;;;;;;;;5014733;28;20034;-67
2023/05/25 08:52:45;;;;;;;11.45;3.15;;;;;;;;;;5014731;28;20101;-66
2023/05/25 08:55:12;;;;;;;10.80;3.28;;;;;;;;;;5013224;28;20406;-65
2023/05/25 08:57:38;;;;;;;10.60;3.28;;;;;;;;;;5014501;28;20405;-66
2023/05/25 09:00:11;;;;;;;8.50;2.67;;;;;;;;;;5015077;28;20096;-65
2023/05/25 09:02:43;;;;;;;11.25;3.08;;;;;;;;;;5013578;28;20034;-66
2023/05/25 09:05:09;;;;;;;10.82;3.05;;;;;;;;;;5014573;28;20038;-66
2023/05/25 09:07:36;;;;;;;11.05;3.30;;;;;;;;;;5014484;28;20032;-66
2023/05/25 09:10:02;;;;;;;11.95;3.35;;;;;;;;;;5014399;28;20018;-67
2023/05/25 09:12:31;;;;;;;9.32;3.22;;;;;;;;;;5014530;28;20029;-66
2023/05/25 09:14:58;;;;;;;18.05;3.60;;;;;;;;;;5014648;28;20140;-66
2023/05/25 09:17:24;;;;;;;10.57;3.25;;;;;;;;;;5013363;28;20022;-66
2023/05/25 09:19:50;;;;;;;11.48;3.53;;;;;;;;;;5013247;28;20049;-67
2023/05/25 09:22:16;;;;;;;10.43;3.40;;;;;;;;;;5014420;28;20544;-66
2023/05/25 09:24:43;;;;;;;8.70;3.20;;;;;;;;;;5013718;28;20041;-64
2023/05/25 09:27:16;;;;;;;10.73;3.50;;;;;;;;;;5014188;28;20118;-65
2023/05/25 09:29:42;;;;;;;10.23;3.28;;;;;;;;;;5010782;28;20029;-66
2023/05/25 09:32:08;;;;;;;10.75;3.50;;;;;;;;;;5013927;28;20032;-66
2023/05/25 09:34:34;;;;;;;12.63;3.25;;;;;;;;;;5014091;28;20383;-65
2023/05/25 09:37:03;;;;;;;9.50;3.20;;;;;;;;;;5013094;28;20084;-66
2023/05/25 09:39:29;;;;;;;10.65;3.13;;;;;;;;;;5013816;28;20052;-66
2023/05/25 09:41:56;;;;;;;16.38;3.30;;;;;;;;;;5011132;28;20573;-66
2023/05/25 09:44:22;;;;;;;7.32;2.70;;;;;;;;;;5009256;28;20068;-65
2023/05/25 09:46:48;;;;;;;15.68;3.60;;;;;;;;;;5010420;28;20529;-66
2023/05/25 09:49:15;;;;;;;12.48;3.33;;;;;;;;;;5013509;28;20018;-66
2023/05/25 09:51:41;;;;;;;8.35;2.97;;;;;;;;;;5011377;28;20072;-66
2023/05/25 09:54:09;;;;;;;10.60;3.42;;;;;;;;;;5008095;28;20450;-66
2023/05/25 09:56:35;;;;;;;17.55;4.22;;;;;;;;;;5010314;28;20073;-67
2023/05/25 09:59:01;;;;;;;10.27;3.40;;;;;;;;;;5002211;28;20033;-71
2023/05/25 10:01:27;;;;;;;12.57;3.83;;;;;;;;;;5011707;28;20236;-71
2023/05/25 10:03:58;;;;;;;13.07;3.80;;;;;;;;;;5010640;28;20042;-71
2023/05/25 10:06:25;;;;;;;13.45;3.40;;;;;;;;;;5010999;28;20022;-70
2023/05/25 10:08:51;;;;;;;9.82;3.65;;;;;;;;;;5010235;28;20034;-70
2023/05/25 10:11:18;;;;;;;16.27;3.50;;;;;;;;;;5010513;28;20041;-70
2023/05/25 10:13:45;;;;;;;11.43;3.40;;;;;;;;;;5011914;28;20184;-71
2023/05/25 10:16:17;;;;;;;12.15;3.38;;;;;;;;;;5023748;28;20032;-68
2023/05/25 10:18:48;;;;;;;7.80;2.78;;;;;;;;;;5011278;28;20416;-67
2023/05/25 10:21:16;;;;;;;11.20;3.20;;;;;;;;;;5012473;28;20148;-67
2023/05/25 10:23:47;;;;;;;11.57;3.38;;;;;;;;;;5011120;28;20030;-67
2023/05/25 10:26:20;;;;;;;9.85;3.00;;;;;;;;;;5012606;28;20050;-67
2023/05/25 10:28:50;;;;;;;10.55;3.33;;;;;;;;;;5011516;28;20018;-67
2023/05/25 10:31:17;;;;;;;12.15;3.03;;;;;;;;;;5010907;28;20029;-69
2023/05/25 10:33:43;;;;;;;13.85;3.20;;;;;;;;;;5014656;28;20191;-68
2023/05/25 10:36:12;;;;;;;8.93;2.85;;;;;;;;;;5012633;28;20050;-67
2023/05/25 10:38:40;;;;;;;13.30;3.80;;;;;;;;;;5012535;28;20056;-68
